• Join FlightAware (Why Join?)
  • Login
  • US Flag 
04:13AM EDT


 

Airport Tracker/Info


-or-


 

Live Flight TrackerFlight Track Log ✈ N2102C ✈ 10-May-2013 ✈ KCMI - 05C

Flight Track Log - Related Links

Times and Time Zones

All times are in EDT time to prevent confusion due to time zone crossing. See the N2102C flight status page for this flight to view local times or setup timezone preferences in your user account.

Time Position Orientation Groundspeed Altitude Reporting Facility
EDT Latitude Longitude Course Direction KTS MPH feet Rate Location/Type
12:32PM 40.2053 -88.1896 20° North  Level FlightAware Approximate
12:33PM 40.2338 -88.1762 20° North  Level FlightAware Approximate
12:33PM 40.2236 -88.2489 24° Northeast 96 110 5,100  Level Chicago Center
12:34PM 40.2623 -88.1627 20° North  Level FlightAware Approximate
12:34PM 40.2544 -88.2367 17° North 105 121 5,100  Level Chicago Center
12:35PM 40.2908 -88.1492 20° North  Level FlightAware Approximate
12:35PM 40.2817 -88.2206 24° Northeast 108 124 5,100  Level Chicago Center
12:36PM 40.3193 -88.1358 20° North  Level FlightAware Approximate
12:36PM 40.3089 -88.2039 25° Northeast 108 124 5,100  Level Chicago Center
12:37PM 40.3478 -88.1223 20° North  Level FlightAware Approximate
12:37PM 40.3369 -88.1903 20° North 108 124 4,900  Level Chicago Center
12:38PM 40.3763 -88.1087 20° North  Level FlightAware Approximate
12:38PM 40.3697 -88.1750 20° North 106 122 4,300  Level Chicago Center
12:39PM 40.3967 -88.1628 19° North 105 121 4,100 -120 Descending Chicago Center
12:40PM 40.4239 -88.1483 22° Northeast 105 121 4,100 -60 Level Chicago Center
12:41PM 40.4528 -88.1353 19° North 107 123 4,000  Descending Chicago Center
12:42PM 40.4783 -88.1219 22° Northeast 104 120 4,100  Climbing Chicago Center
12:43PM 40.5108 -88.1031 24° Northeast 104 120 4,100  Level Chicago Center
12:45PM 40.5386 -88.0872 23° Northeast 107 123 4,100 -60 Level Chicago Center
12:46PM 40.5667 -88.0731 21° North 108 124 4,000 -60 Descending Chicago Center
12:47PM 40.5947 -88.0586 21° North 109 125 4,000  Level Chicago Center
12:48PM 40.6222 -88.0408 26° Northeast 109 125 4,000  Level Chicago Center
12:49PM 40.6536 -88.0250 21° North 106 122 4,100  Climbing Chicago Center
12:50PM 40.6786 -88.0050 31° Northeast 104 120 4,100  Level Chicago Center
12:51PM 40.7036 -87.9858 30° Northeast 104 120 4,100  Level Chicago Center
12:52PM 40.7300 -87.9689 26° Northeast 105 121 4,100 -60 Level Chicago Center
12:53PM 40.7567 -87.9508 27° Northeast 107 123 4,000 -60 Descending Chicago Center
12:54PM 40.7836 -87.9333 26° Northeast 108 124 4,000  Level Chicago Center
12:55PM 40.8142 -87.9114 29° Northeast 106 122 4,000  Level Chicago Center
12:56PM 40.8397 -87.8947 26° Northeast 105 121 4,000  Level Chicago Center
12:57PM 40.8644 -87.8747 31° Northeast 105 121 4,000  Level Chicago Center
12:58PM 40.8903 -87.8531 32° Northeast 106 122 4,000  Level Chicago Center
12:59PM 40.9164 -87.8350 28° Northeast 107 123 4,000  Level Chicago Center
01:00PM 40.9467 -87.8136 28° Northeast 105 121 4,000  Level Chicago Center
01:01PM 40.9717 -87.7969 27° Northeast 103 119 4,000  Level Chicago Center
01:02PM 40.9964 -87.7800 27° Northeast 102 117 4,000  Level Chicago Center
01:03PM 41.0208 -87.7625 28° Northeast 102 117 4,100  Climbing Chicago Center
01:04PM 41.0450 -87.7444 29° Northeast 101 116 4,100  Level Chicago Center
01:05PM 41.0756 -87.7233 28° Northeast 102 117 4,100  Level Chicago Center
01:06PM 41.1000 -87.7050 29° Northeast 102 117 4,100 -60 Level Chicago Center
01:07PM 41.1244 -87.6864 30° Northeast 102 117 4,000 -60 Descending Chicago Center
01:08PM 41.1489 -87.6664 32° Northeast 102 117 4,000  Level Chicago Center
01:09PM 41.1736 -87.6489 28° Northeast 103 119 4,000  Level Chicago Center
01:10PM 41.2025 -87.6314 25° Northeast 99 114 4,000  Level Chicago Center
01:11PM 41.2253 -87.6144 29° Northeast 97 112 4,000  Level Chicago Center
01:12PM 41.2483 -87.5953 32° Northeast 97 112 4,000  Level Chicago Center
01:13PM 41.2714 -87.5797 27° Northeast 96 110 4,000  Level Chicago Center
01:15PM 41.2950 -87.5631 28° Northeast 96 110 4,000  Level Chicago Center
01:16PM 41.3247 -87.5425 27° Northeast 99 114 4,000  Level Chicago Center
01:17PM 41.3492 -87.5253 28° Northeast 99 114 4,000 -60 Level Chicago Center
01:18PM 41.3719 -87.5094 28° Northeast 98 113 3,900 -300 Descending Chicago Center
01:19PM 41.3947 -87.4900 33° Northeast 97 112 3,400 -480 Descending Chicago Center
01:20PM 41.4142 -87.4769 27° Northeast 88 101 3,000 -240 Descending Chicago Center
01:21PM 41.4375 -87.4583 31° Northeast 84 97 3,000  Level Chicago Center
01:22PM 41.4572 -87.4447 27° Northeast 82 94 3,000 -60 Level Chicago Center
01:23PM 41.4772 -87.4417 North 102 117 2,900  Descending Chicago Center
01:24PM 41.4858 -87.4714 291° West 93 107 3,000  Climbing Chicago Center
01:25PM 41.4917 -87.5061 283° West 93 107 3,000  Level Chicago Center
01:26PM 41.5022 -87.5431 291° West 91 105 3,100 -60 Climbing Chicago Center
01:27PM 41.5119 -87.5761 291° West 93 107 2,900 -300 Descending Chicago Center
01:28PM 41.5064 -87.6147 259° West 104 120 2,500 -300 Descending Chicago Center
01:29PM 41.4869 -87.6411 225° Southwest 103 119 2,300 -120 Descending Chicago Center
01:30PM 41.4825 -87.6647 256° West 109 125 2,300  Level Chicago Center
01:31PM 41.5008 -87.6389 47° Northeast 90 104 2,400  Climbing Chicago Center
01:32PM 41.5078 -87.6069 74° East 89 102 2,300  Descending Chicago Center
01:33PM 41.5097 -87.5739 85° East 90 104 2,400 -240 Climbing Chicago Center
01:34PM 41.5075 -87.5394 95° East 91 105 1,900 -480 Descending Chicago Center
01:35PM 41.5131 -87.5075 77° East 91 105 1,500 -300 Descending Chicago Center
01:36PM 41.5156 -87.4722 85° East 85 98 1,300 -240 Descending Chicago Center